createdAt,value
2022-12-18T00:00:06.116Z,-1.61
2022-12-18T00:02:41.786Z,-1.50
2022-12-18T00:05:10.178Z,-1.62
2022-12-18T00:07:38.347Z,-1.41
2022-12-18T00:10:06.841Z,-1.59
2022-12-18T00:12:35.001Z,-1.53
2022-12-18T00:15:02.912Z,-1.82
2022-12-18T00:17:30.757Z,-1.45
2022-12-18T00:19:59.054Z,-1.75
2022-12-18T00:22:26.970Z,-1.63
2022-12-18T00:24:54.830Z,-1.48
2022-12-18T00:27:23.107Z,-1.81
2022-12-18T00:29:50.901Z,-1.90
2022-12-18T00:32:19.253Z,-1.57
2022-12-18T00:34:47.484Z,-2.07
2022-12-18T00:37:19.997Z,-2.05
2022-12-18T00:39:52.094Z,-1.58
2022-12-18T00:42:39.480Z,-1.67
2022-12-18T00:45:12.580Z,-1.84
2022-12-18T00:47:41.135Z,-1.74
2022-12-18T00:50:10.457Z,-1.60
2022-12-18T00:52:41.518Z,-1.80
2022-12-18T00:55:10.213Z,-1.85
2022-12-18T00:57:38.223Z,-1.89
2022-12-18T01:00:07.177Z,-2.04
2022-12-18T01:02:36.401Z,-1.90
2022-12-18T01:05:04.738Z,-1.93
2022-12-18T01:07:32.487Z,-1.37
2022-12-18T01:10:00.714Z,-1.76
2022-12-18T01:12:28.539Z,-1.64
2022-12-18T01:14:56.364Z,-1.87
2022-12-18T01:17:24.647Z,-1.71
2022-12-18T01:19:52.402Z,-1.78
2022-12-18T01:22:20.461Z,-1.80
2022-12-18T01:24:48.894Z,-1.88
2022-12-18T01:27:16.884Z,-1.78
2022-12-18T01:29:44.762Z,-2.05
2022-12-18T01:32:13.017Z,-1.76
2022-12-18T01:34:41.066Z,-1.84
2022-12-18T01:37:08.893Z,-1.92
2022-12-18T01:39:37.112Z,-1.87
2022-12-18T01:42:06.833Z,-1.87
2022-12-18T01:45:02.895Z,-1.78
2022-12-18T01:47:44.624Z,-1.55
2022-12-18T01:50:16.583Z,-1.62
2022-12-18T01:52:47.634Z,-1.22
2022-12-18T01:55:18.445Z,-1.20
2022-12-18T01:57:48.350Z,-1.67
2022-12-18T02:00:21.490Z,-1.72
2022-12-18T02:02:49.897Z,-1.54
2022-12-18T02:05:20.573Z,-1.68
2022-12-18T02:08:12.865Z,-1.70
2022-12-18T02:10:57.553Z,-1.82
2022-12-18T02:13:48.081Z,-1.61
2022-12-18T02:16:39.481Z,-1.80
2022-12-18T02:19:22.652Z,-1.84
2022-12-18T02:22:27.370Z,-2.06
2022-12-18T02:25:01.262Z,-1.75
2022-12-18T02:27:31.335Z,-1.70
2022-12-18T02:30:01.331Z,-2.04
2022-12-18T02:32:37.056Z,-1.99
2022-12-18T02:35:07.758Z,-1.70
2022-12-18T02:37:36.673Z,-1.70
2022-12-18T02:40:05.949Z,-2.07
2022-12-18T02:42:34.594Z,-2.12
2022-12-18T02:45:02.996Z,-1.74
2022-12-18T02:47:38.723Z,-1.80
2022-12-18T02:50:20.417Z,-2.09
2022-12-18T02:53:07.982Z,-1.74
2022-12-18T02:55:57.438Z,-1.68
2022-12-18T02:58:37.565Z,-1.87
2022-12-18T03:01:17.091Z,-1.54
2022-12-18T03:03:52.256Z,-1.86
2022-12-18T03:06:25.896Z,-1.44
2022-12-18T03:08:59.007Z,-1.67
2022-12-18T03:11:49.036Z,-1.69
2022-12-18T03:14:18.953Z,-1.59
2022-12-18T03:16:51.350Z,-1.70
2022-12-18T03:19:24.051Z,-1.64
2022-12-18T03:21:57.636Z,-1.73
2022-12-18T03:24:27.701Z,-1.68
2022-12-18T03:27:00.725Z,-1.62
2022-12-18T03:29:35.477Z,-1.57
2022-12-18T03:32:10.119Z,-1.48
2022-12-18T03:34:41.088Z,-1.30
2022-12-18T03:37:09.921Z,-1.85
2022-12-18T03:39:38.179Z,-1.54
2022-12-18T03:42:14.255Z,-1.91
2022-12-18T03:44:46.516Z,-1.35
2022-12-18T03:47:29.499Z,-1.64
2022-12-18T03:50:02.619Z,-1.44
2022-12-18T03:52:36.955Z,-1.92
2022-12-18T03:55:07.111Z,-1.46
2022-12-18T03:57:35.404Z,-1.61
2022-12-18T04:00:15.093Z,-2.11
2022-12-18T04:02:53.631Z,-1.96
2022-12-18T04:05:23.364Z,-2.35
2022-12-18T04:07:53.338Z,-2.18
2022-12-18T04:10:21.260Z,-2.33
2022-12-18T04:12:49.684Z,-2.18
2022-12-18T04:15:18.048Z,-2.25
2022-12-18T04:17:50.377Z,-1.95
2022-12-18T04:20:19.460Z,-2.20
2022-12-18T04:22:47.759Z,-1.85
2022-12-18T04:25:15.886Z,-1.87
2022-12-18T04:27:46.112Z,-1.70
2022-12-18T04:30:14.111Z,-2.22
2022-12-18T04:32:46.509Z,-1.59
2022-12-18T04:35:17.877Z,-2.11
2022-12-18T04:37:46.009Z,-2.07
2022-12-18T04:40:14.029Z,-2.00
2022-12-18T04:42:42.598Z,-2.07
2022-12-18T04:45:10.831Z,-2.13
2022-12-18T04:47:38.662Z,-2.33
2022-12-18T04:50:07.405Z,-2.68
2022-12-18T04:52:35.220Z,-2.11
2022-12-18T04:55:03.113Z,-2.51
2022-12-18T04:57:31.351Z,-2.24
2022-12-18T04:59:59.275Z,-2.54
2022-12-18T05:02:27.265Z,-2.54
2022-12-18T05:04:55.611Z,-2.01
2022-12-18T05:07:23.491Z,-2.49
2022-12-18T05:09:51.404Z,-2.34
2022-12-18T05:12:19.561Z,-2.08
2022-12-18T05:14:47.429Z,-1.97
2022-12-18T05:17:15.196Z,-2.24
2022-12-18T05:19:43.386Z,-2.32
2022-12-18T05:22:11.688Z,-2.11
2022-12-18T05:24:39.512Z,-2.00
2022-12-18T05:27:07.816Z,-2.32
2022-12-18T05:29:35.776Z,-2.46
2022-12-18T05:32:03.645Z,-2.63
2022-12-18T05:34:32.271Z,-2.88
2022-12-18T05:37:00.115Z,-2.65
2022-12-18T05:39:28.017Z,-2.73
2022-12-18T05:41:56.193Z,-2.38
2022-12-18T05:44:24.199Z,-2.99
2022-12-18T05:46:52.122Z,-2.70
2022-12-18T05:49:20.243Z,-2.83
2022-12-18T05:51:48.164Z,-2.83
2022-12-18T05:54:16.085Z,-2.42
2022-12-18T05:56:48.479Z,-2.63
2022-12-18T05:59:16.712Z,-2.88
2022-12-18T06:01:44.974Z,-2.92
2022-12-18T06:04:13.630Z,-2.51
2022-12-18T06:06:41.750Z,-2.71
2022-12-18T06:09:10.710Z,-2.91
2022-12-18T06:11:39.770Z,-3.06
2022-12-18T06:14:08.226Z,-3.12
2022-12-18T06:16:36.098Z,-3.21
2022-12-18T06:19:05.924Z,-2.83
2022-12-18T06:21:34.305Z,-3.29
2022-12-18T06:24:03.097Z,-3.25
2022-12-18T06:26:31.531Z,-3.26
2022-12-18T06:28:59.365Z,-3.75
2022-12-18T06:31:27.919Z,-3.36
2022-12-18T06:33:57.405Z,-2.92
2022-12-18T06:36:25.342Z,-2.86
2022-12-18T06:38:53.230Z,-2.44
2022-12-18T06:41:22.514Z,-2.52
2022-12-18T06:43:50.812Z,-2.63
2022-12-18T06:46:19.008Z,-2.33
2022-12-18T06:48:51.395Z,-2.27
2022-12-18T06:51:21.093Z,-2.69
2022-12-18T06:53:49.582Z,-2.25
2022-12-18T06:56:17.734Z,-2.22
2022-12-18T06:58:45.662Z,-1.96
2022-12-18T07:01:14.711Z,-2.49
2022-12-18T07:03:43.989Z,-2.39
2022-12-18T07:06:20.845Z,-2.64
2022-12-18T07:08:50.172Z,-1.74
2022-12-18T07:11:18.797Z,-1.57
2022-12-18T07:13:49.103Z,-0.83
2022-12-18T07:16:24.605Z,-1.32
2022-12-18T07:18:53.801Z,-0.99
2022-12-18T07:21:23.206Z,-0.91
2022-12-18T07:23:51.136Z,-1.81
2022-12-18T07:26:21.249Z,-2.13
2022-12-18T07:28:50.150Z,-1.06
2022-12-18T07:31:23.478Z,-0.70
2022-12-18T07:33:52.476Z,-0.30
2022-12-18T07:36:23.770Z,-0.14
2022-12-18T07:38:53.633Z,0.31
2022-12-18T07:41:21.764Z,0.57
2022-12-18T07:43:50.018Z,0.64
2022-12-18T07:46:18.877Z,1.12
2022-12-18T07:48:50.022Z,0.44
2022-12-18T07:51:19.837Z,0.88
2022-12-18T07:53:50.323Z,1.40
2022-12-18T07:56:30.579Z,2.25
2022-12-18T07:59:00.320Z,1.68
2022-12-18T08:01:28.968Z,2.64
2022-12-18T08:03:58.695Z,2.51
2022-12-18T08:06:26.921Z,2.81
2022-12-18T08:08:55.722Z,2.93
2022-12-18T08:11:25.696Z,3.24
2022-12-18T08:13:54.004Z,2.66
2022-12-18T08:16:22.560Z,2.22
2022-12-18T08:18:52.432Z,2.32
2022-12-18T08:21:29.191Z,2.08
2022-12-18T08:23:59.674Z,2.20
2022-12-18T08:26:29.683Z,0.94
2022-12-18T08:28:59.549Z,1.54
2022-12-18T08:31:29.062Z,2.42
2022-12-18T08:33:58.548Z,2.33
2022-12-18T08:36:26.474Z,2.64
2022-12-18T08:38:55.311Z,2.91
2022-12-18T08:41:23.775Z,3.19
2022-12-18T08:44:10.649Z,3.97
2022-12-18T08:46:41.305Z,4.82
2022-12-18T08:49:10.199Z,4.46
2022-12-18T08:51:39.009Z,5.82
2022-12-18T08:54:07.924Z,6.95
2022-12-18T08:56:36.165Z,7.47
2022-12-18T08:59:05.570Z,8.10
2022-12-18T09:01:33.705Z,8.09
2022-12-18T09:04:02.579Z,8.89
2022-12-18T09:06:30.828Z,8.27
2022-12-18T09:08:59.052Z,8.04
2022-12-18T09:11:29.119Z,7.69
2022-12-18T09:13:58.152Z,5.83
2022-12-18T09:16:32.270Z,6.17
2022-12-18T09:19:01.358Z,6.56
2022-12-18T09:21:36.737Z,8.06
2022-12-18T09:24:09.076Z,8.24
2022-12-18T09:26:37.801Z,7.07
2022-12-18T09:29:08.369Z,6.21
2022-12-18T09:31:36.553Z,5.45
2022-12-18T09:34:08.231Z,6.30
2022-12-18T09:36:36.516Z,5.12
2022-12-18T09:39:08.101Z,6.13
2022-12-18T09:41:54.487Z,4.83
2022-12-18T09:44:22.372Z,5.43
2022-12-18T09:47:00.254Z,6.71
2022-12-18T09:49:31.607Z,7.59
2022-12-18T09:52:36.994Z,8.94
2022-12-18T09:55:25.729Z,10.65
2022-12-18T09:57:58.458Z,10.62
2022-12-18T10:00:26.865Z,11.32
2022-12-18T10:03:01.969Z,11.83
2022-12-18T10:05:39.069Z,12.12
2022-12-18T10:08:31.366Z,12.55
2022-12-18T10:11:05.462Z,13.76
2022-12-18T10:13:42.661Z,13.43
2022-12-18T10:16:33.931Z,13.83
2022-12-18T10:19:10.756Z,11.58
2022-12-18T10:21:40.981Z,14.24
2022-12-18T10:24:33.858Z,14.13
2022-12-18T10:27:13.762Z,13.22
2022-12-18T10:29:44.301Z,11.86
2022-12-18T10:32:24.091Z,13.08
2022-12-18T10:35:00.169Z,12.37
2022-12-18T10:37:29.482Z,12.85
2022-12-18T10:40:19.866Z,12.87
2022-12-18T10:43:13.859Z,13.81
2022-12-18T10:45:43.249Z,13.76
2022-12-18T10:48:21.520Z,14.30
2022-12-18T10:53:41.366Z,13.53
2022-12-18T10:56:10.035Z,11.99
2022-12-18T10:58:40.384Z,13.88
2022-12-18T11:01:16.994Z,13.22
2022-12-18T11:03:51.130Z,14.09
2022-12-18T11:06:25.658Z,12.55
2022-12-18T11:09:21.793Z,12.78
2022-12-18T11:11:55.624Z,13.73
2022-12-18T11:14:33.494Z,14.74
2022-12-18T11:17:24.762Z,12.18
2022-12-18T11:19:58.522Z,11.77
2022-12-18T11:22:29.268Z,12.93
2022-12-18T11:28:24.071Z,12.68
2022-12-18T11:31:29.033Z,12.02
2022-12-18T11:34:29.092Z,14.39
2022-12-18T11:36:59.491Z,13.61
2022-12-18T11:39:27.900Z,12.96
2022-12-18T11:42:12.918Z,13.87
2022-12-18T11:45:04.224Z,12.94
2022-12-18T11:47:57.160Z,13.37
2022-12-18T11:50:29.478Z,11.89
2022-12-18T11:53:01.501Z,11.33
2022-12-18T11:55:47.272Z,13.57
2022-12-18T11:58:29.503Z,11.96
2022-12-18T12:01:06.734Z,12.06
2022-12-18T12:03:44.781Z,12.40
2022-12-18T12:06:16.332Z,12.27
2022-12-18T12:09:26.839Z,11.99
2022-12-18T12:12:32.572Z,11.91
2022-12-18T12:15:19.052Z,11.22
2022-12-18T12:18:00.388Z,11.71
2022-12-18T12:21:05.523Z,10.48
2022-12-18T12:23:39.392Z,10.10
2022-12-18T12:26:11.482Z,9.09
2022-12-18T12:29:01.330Z,8.75
2022-12-18T12:32:03.481Z,8.97
2022-12-18T12:34:33.749Z,8.35
2022-12-18T12:37:18.904Z,8.09
2022-12-18T12:39:48.530Z,7.82
2022-12-18T12:42:58.712Z,7.83
2022-12-18T12:45:35.778Z,7.16
2022-12-18T12:48:07.022Z,7.25
2022-12-18T12:50:36.879Z,7.43
2022-12-18T12:53:09.303Z,6.97
2022-12-18T12:55:37.418Z,7.21
2022-12-18T12:58:13.661Z,5.81
2022-12-18T13:00:48.231Z,5.78
2022-12-18T13:03:25.198Z,6.31
2022-12-18T13:06:00.797Z,6.21
2022-12-18T13:08:35.952Z,5.12
2022-12-18T13:11:25.615Z,5.58
2022-12-18T13:13:56.723Z,5.76
2022-12-18T13:16:28.567Z,5.43
2022-12-18T13:18:59.903Z,5.44
2022-12-18T13:21:32.765Z,4.82
2022-12-18T13:24:31.661Z,4.78
2022-12-18T13:26:59.601Z,4.41
2022-12-18T13:29:46.242Z,3.88
2022-12-18T13:32:23.319Z,4.03
2022-12-18T13:35:18.826Z,3.77
2022-12-18T13:37:55.544Z,3.33
2022-12-18T13:40:51.644Z,3.66
2022-12-18T13:43:22.676Z,3.16
2022-12-18T13:46:07.391Z,3.66
2022-12-18T13:48:38.240Z,3.44
2022-12-18T13:51:07.878Z,3.18
2022-12-18T13:53:52.582Z,3.28
2022-12-18T13:56:32.934Z,3.17
2022-12-18T13:59:19.194Z,2.69
2022-12-18T14:02:02.860Z,1.83
2022-12-18T14:04:36.941Z,1.97
2022-12-18T14:07:13.624Z,1.56
2022-12-18T14:10:25.888Z,1.68
2022-12-18T14:13:01.272Z,0.88
2022-12-18T14:15:45.633Z,2.31
2022-12-18T14:18:28.073Z,3.00
2022-12-18T14:20:59.110Z,2.10
2022-12-18T14:23:42.140Z,1.98
2022-12-18T14:26:30.528Z,2.40
2022-12-18T14:29:25.895Z,1.70
2022-12-18T14:32:18.161Z,2.00
2022-12-18T14:34:57.387Z,1.77
2022-12-18T14:37:27.579Z,1.29
2022-12-18T14:40:10.917Z,0.52
2022-12-18T14:42:40.127Z,0.45
2022-12-18T14:45:45.611Z,0.52
2022-12-18T14:48:40.287Z,0.40
2022-12-18T14:51:14.001Z,0.68
2022-12-18T14:53:49.124Z,0.18
2022-12-18T14:56:45.729Z,1.05
2022-12-18T14:59:26.205Z,1.06
2022-12-18T15:02:12.861Z,0.24
2022-12-18T15:04:44.887Z,-0.23
2022-12-18T15:07:19.377Z,-0.43
2022-12-18T15:10:12.713Z,0.33
2022-12-18T15:13:04.622Z,0.50
2022-12-18T15:15:39.006Z,0.28
2022-12-18T15:18:10.015Z,-0.89
2022-12-18T15:20:42.391Z,-0.23
2022-12-18T15:23:36.720Z,0.29
2022-12-18T15:26:11.604Z,-0.15
2022-12-18T15:28:40.671Z,0.32
2022-12-18T15:31:15.929Z,-0.12
2022-12-18T15:33:47.366Z,0.12
2022-12-18T15:36:19.314Z,0.18
2022-12-18T15:39:05.259Z,0.08
2022-12-18T15:41:36.610Z,-0.14
2022-12-18T15:44:26.839Z,-0.33
2022-12-18T15:46:57.882Z,-1.34
2022-12-18T15:49:25.919Z,-0.42
2022-12-18T15:51:56.528Z,-0.49
2022-12-18T15:54:44.549Z,-0.67
2022-12-18T15:57:25.225Z,-1.12
2022-12-18T15:59:59.485Z,-0.95
2022-12-18T16:02:29.637Z,-1.14
2022-12-18T16:04:58.140Z,-1.20
2022-12-18T16:07:28.142Z,-1.33
2022-12-18T16:10:00.398Z,-1.31
2022-12-18T16:12:30.394Z,-1.50
2022-12-18T16:14:58.667Z,-2.13
2022-12-18T16:17:26.752Z,-1.94
2022-12-18T16:19:54.914Z,-1.61
2022-12-18T16:22:24.985Z,-2.16
2022-12-18T16:24:54.161Z,-1.86
2022-12-18T16:27:23.899Z,-1.92
2022-12-18T16:29:52.257Z,-1.89
2022-12-18T16:32:22.174Z,-1.97
2022-12-18T16:34:51.241Z,-2.18
2022-12-18T16:37:19.566Z,-2.00
2022-12-18T16:39:47.602Z,-1.96
2022-12-18T16:42:20.537Z,-2.17
2022-12-18T16:44:50.142Z,-2.23
2022-12-18T16:47:18.415Z,-2.12
2022-12-18T16:49:46.587Z,-2.28
2022-12-18T16:52:15.272Z,-2.63
2022-12-18T16:54:43.271Z,-2.25
2022-12-18T16:57:16.698Z,-2.18
2022-12-18T16:59:45.523Z,-2.19
2022-12-18T17:02:22.204Z,-2.79
2022-12-18T17:04:58.109Z,-2.46
2022-12-18T17:07:27.151Z,-2.40
2022-12-18T17:09:55.658Z,-2.51
2022-12-18T17:12:24.019Z,-2.70
2022-12-18T17:14:52.075Z,-2.83
2022-12-18T17:17:22.253Z,-2.86
2022-12-18T17:19:52.141Z,-3.06
2022-12-18T17:22:21.796Z,-3.35
2022-12-18T17:24:49.713Z,-3.11
2022-12-18T17:27:17.703Z,-3.02
2022-12-18T17:29:48.361Z,-2.98
2022-12-18T17:32:18.075Z,-3.01
2022-12-18T17:34:49.020Z,-2.92
2022-12-18T17:37:17.037Z,-3.13
2022-12-18T17:39:45.066Z,-3.29
2022-12-18T17:42:15.165Z,-3.69
2022-12-18T17:44:44.365Z,-3.27
2022-12-18T17:47:13.600Z,-3.47
2022-12-18T17:49:42.179Z,-3.36
2022-12-18T17:52:10.513Z,-3.34
2022-12-18T17:54:41.587Z,-3.24
2022-12-18T17:57:28.898Z,-3.27
2022-12-18T18:00:04.902Z,-3.37
2022-12-18T18:02:37.550Z,-3.47
2022-12-18T18:05:06.229Z,-3.45
2022-12-18T18:07:34.249Z,-3.51
2022-12-18T18:10:02.200Z,-3.65
2022-12-18T18:12:50.051Z,-3.69
2022-12-18T18:15:18.188Z,-4.21
2022-12-18T18:17:46.528Z,-3.47
2022-12-18T18:20:22.271Z,-3.32
2022-12-18T18:22:51.070Z,-3.43
2022-12-18T18:25:19.145Z,-3.38
2022-12-18T18:27:47.818Z,-3.29
2022-12-18T18:30:16.621Z,-3.43
2022-12-18T18:32:44.650Z,-3.40
2022-12-18T18:35:37.524Z,-3.72
2022-12-18T18:38:02.717Z,-3.51
2022-12-18T18:40:30.918Z,-3.78
2022-12-18T18:42:58.875Z,-3.63
2022-12-18T18:45:27.442Z,-3.51
2022-12-18T18:47:55.425Z,-3.86
2022-12-18T18:50:23.494Z,-3.83
2022-12-18T18:52:53.160Z,-3.73
2022-12-18T18:55:25.582Z,-3.78
2022-12-18T18:57:54.240Z,-4.69
2022-12-18T19:00:22.289Z,-4.33
2022-12-18T19:02:52.165Z,-3.77
2022-12-18T19:05:23.296Z,-3.96
2022-12-18T19:07:51.208Z,-4.12
2022-12-18T19:10:19.196Z,-3.98
2022-12-18T19:13:05.777Z,-4.06
2022-12-18T19:15:34.486Z,-4.15
2022-12-18T19:18:03.139Z,-4.35
2022-12-18T19:20:31.241Z,-4.08
2022-12-18T19:22:59.312Z,-4.13
2022-12-18T19:25:40.678Z,-4.18
2022-12-18T19:28:13.231Z,-4.21
2022-12-18T19:30:59.006Z,-4.29
2022-12-18T19:33:43.205Z,-4.31
2022-12-18T19:36:14.938Z,-4.43
2022-12-18T19:38:44.976Z,-4.47
2022-12-18T19:41:14.964Z,-4.82
2022-12-18T19:43:43.424Z,-4.55
2022-12-18T19:46:14.817Z,-4.48
2022-12-18T19:48:44.620Z,-4.33
2022-12-18T19:51:29.400Z,-4.32
2022-12-18T19:54:07.295Z,-4.67
2022-12-18T19:56:36.103Z,-4.49
2022-12-18T19:59:05.385Z,-5.47
2022-12-18T20:01:33.949Z,-4.95
2022-12-18T20:04:03.817Z,-4.39
2022-12-18T20:06:34.880Z,-4.30
2022-12-18T20:09:06.922Z,-4.56
2022-12-18T20:11:42.046Z,-4.33
2022-12-18T20:14:12.170Z,-4.24
2022-12-18T20:16:41.061Z,-4.20
2022-12-18T20:19:11.576Z,-4.27
2022-12-18T20:21:41.017Z,-4.27
2022-12-18T20:24:09.357Z,-4.28
2022-12-18T20:26:38.120Z,-4.28
2022-12-18T20:29:07.100Z,-4.34
2022-12-18T20:31:35.247Z,-4.29
2022-12-18T20:34:04.847Z,-4.49
2022-12-18T20:36:35.260Z,-4.46
2022-12-18T20:39:07.520Z,-5.35
2022-12-18T20:41:38.967Z,-4.66
2022-12-18T20:44:09.854Z,-4.14
2022-12-18T20:46:55.772Z,-4.19
2022-12-18T20:49:24.681Z,-4.27
2022-12-18T20:51:54.676Z,-4.28
2022-12-18T20:54:23.731Z,-4.90
2022-12-18T20:56:51.881Z,-4.53
2022-12-18T20:59:20.720Z,-4.31
2022-12-18T21:01:49.831Z,-4.27
2022-12-18T21:04:21.384Z,-4.30
2022-12-18T21:06:55.721Z,-4.29
2022-12-18T21:09:37.709Z,-4.45
2022-12-18T21:12:33.370Z,-4.41
2022-12-18T21:15:07.856Z,-4.37
2022-12-18T21:17:44.109Z,-4.46
2022-12-18T21:20:17.588Z,-4.39
2022-12-18T21:22:47.309Z,-4.37
2022-12-18T21:25:15.202Z,-4.34
2022-12-18T21:27:43.208Z,-4.27
2022-12-18T21:30:11.956Z,-4.52
2022-12-18T21:32:40.015Z,-4.43
2022-12-18T21:35:08.272Z,-4.58
2022-12-18T21:37:36.635Z,-4.57
2022-12-18T21:40:05.131Z,-4.55
2022-12-18T21:42:51.760Z,-4.13
2022-12-18T21:45:20.228Z,-4.10
2022-12-18T21:47:48.273Z,-3.66
2022-12-18T21:50:16.179Z,-4.11
2022-12-18T21:52:44.472Z,-4.40
2022-12-18T21:55:12.358Z,-4.11
2022-12-18T21:57:40.433Z,-3.89
2022-12-18T22:00:19.169Z,-3.46
2022-12-18T22:03:17.101Z,-3.21
2022-12-18T22:05:36.894Z,-3.36
2022-12-18T22:08:07.016Z,-3.48
2022-12-18T22:10:35.519Z,-3.44
2022-12-18T22:13:04.747Z,-2.93
2022-12-18T22:15:33.610Z,-2.97
2022-12-18T22:18:01.546Z,-3.00
2022-12-18T22:20:30.203Z,-3.00
2022-12-18T22:23:01.540Z,-3.04
2022-12-18T22:25:35.836Z,-2.92
2022-12-18T22:28:26.877Z,-2.75
2022-12-18T22:30:59.073Z,-2.36
2022-12-18T22:33:28.714Z,-2.40
2022-12-18T22:35:56.670Z,-2.32
2022-12-18T22:38:24.657Z,-2.62
2022-12-18T22:40:52.948Z,-2.55
2022-12-18T22:43:21.046Z,-2.59
2022-12-18T22:45:49.292Z,-3.18
2022-12-18T22:48:17.837Z,-2.98
2022-12-18T22:50:45.744Z,-2.57
2022-12-18T22:53:13.656Z,-3.81
2022-12-18T22:55:41.900Z,-3.11
2022-12-18T22:58:09.734Z,-2.99
2022-12-18T23:00:37.681Z,-3.30
2022-12-18T23:03:07.307Z,-3.13
2022-12-18T23:05:35.622Z,-2.52
2022-12-18T23:08:03.596Z,-2.79
2022-12-18T23:10:31.871Z,-2.73
2022-12-18T23:12:59.785Z,-2.76
2022-12-18T23:15:28.497Z,-2.86
2022-12-18T23:17:58.621Z,-2.28
2022-12-18T23:20:27.664Z,-1.99
2022-12-18T23:22:55.632Z,-2.38
2022-12-18T23:25:23.973Z,-2.34
2022-12-18T23:27:51.940Z,-2.44
2022-12-18T23:30:19.836Z,-2.79
2022-12-18T23:32:48.475Z,-2.24
2022-12-18T23:35:17.558Z,-2.56
2022-12-18T23:38:02.622Z,-2.18
2022-12-18T23:40:31.005Z,-2.30
2022-12-18T23:42:59.742Z,-1.94
2022-12-18T23:45:27.852Z,-2.21
2022-12-18T23:47:56.097Z,-1.89
2022-12-18T23:50:29.105Z,-2.24
2022-12-18T23:53:03.717Z,-2.31
2022-12-18T23:55:38.837Z,-2.32
2022-12-18T23:58:08.209Z,-2.35
